createdAt,value
2022-12-12T00:00:31.125Z,-4.00
2022-12-12T00:03:17.371Z,-4.10
2022-12-12T00:06:05.058Z,-3.90
2022-12-12T00:08:51.568Z,-4.00
2022-12-12T00:11:37.794Z,-3.70
2022-12-12T00:14:23.246Z,-3.80
2022-12-12T00:17:08.629Z,-3.60
2022-12-12T00:19:54.384Z,-4.10
2022-12-12T00:22:39.638Z,-3.80
2022-12-12T00:25:25.250Z,-3.80
2022-12-12T00:28:10.725Z,-4.00
2022-12-12T00:30:56.454Z,-4.10
2022-12-12T00:33:41.732Z,-4.20
2022-12-12T00:36:29.272Z,-4.00
2022-12-12T00:39:18.347Z,-3.90
2022-12-12T00:42:04.033Z,-4.00
2022-12-12T00:44:49.628Z,-3.90
2022-12-12T00:47:35.492Z,-3.60
2022-12-12T00:50:20.859Z,-3.20
2022-12-12T00:53:06.233Z,-3.80
2022-12-12T00:55:59.003Z,-3.90
2022-12-12T00:58:44.888Z,-3.80
2022-12-12T01:01:32.971Z,-3.90
2022-12-12T01:04:18.434Z,-3.90
2022-12-12T01:07:04.345Z,-3.70
2022-12-12T01:09:49.763Z,-3.60
2022-12-12T01:12:35.863Z,-3.70
2022-12-12T01:15:21.981Z,-3.80
2022-12-12T01:18:07.287Z,-3.70
2022-12-12T01:20:53.729Z,-3.70
2022-12-12T01:23:40.070Z,-4.00
2022-12-12T01:26:25.686Z,-3.90
2022-12-12T01:29:11.356Z,-4.00
2022-12-12T01:31:57.417Z,-4.10
2022-12-12T01:34:42.869Z,-3.00
2022-12-12T01:37:28.554Z,-4.40
2022-12-12T01:40:22.270Z,-4.70
2022-12-12T01:43:20.262Z,-4.80
2022-12-12T01:46:05.781Z,-5.10
2022-12-12T01:49:17.646Z,-5.00
2022-12-12T01:52:17.740Z,-4.80
2022-12-12T01:55:05.428Z,-4.70
2022-12-12T01:57:53.918Z,-5.00
2022-12-12T02:00:41.018Z,-4.50
2022-12-12T02:03:27.338Z,-4.50
2022-12-12T02:06:17.573Z,-1.70
2022-12-12T02:09:07.013Z,-4.80
2022-12-12T02:11:55.281Z,-4.80
2022-12-12T02:14:45.443Z,-4.90
2022-12-12T02:17:45.864Z,-5.10
2022-12-12T02:20:31.461Z,-5.00
2022-12-12T02:23:38.777Z,-4.90
2022-12-12T02:26:45.989Z,-4.70
2022-12-12T02:30:00.703Z,-4.70
2022-12-12T02:32:52.461Z,-4.60
2022-12-12T02:36:07.680Z,-4.70
2022-12-12T02:39:03.134Z,-4.50
2022-12-12T02:42:14.589Z,-4.40
2022-12-12T02:45:09.474Z,-4.50
2022-12-12T02:48:00.318Z,-4.20
2022-12-12T02:50:48.541Z,-4.60
2022-12-12T02:53:34.281Z,-4.70
2022-12-12T02:56:41.430Z,-4.90
2022-12-12T02:59:41.065Z,-4.80
2022-12-12T03:02:45.488Z,-4.90
2022-12-12T03:06:00.077Z,-4.80
2022-12-12T03:09:24.397Z,-4.90
2022-12-12T03:12:43.609Z,-5.10
2022-12-12T03:15:57.973Z,-5.60
2022-12-12T03:18:57.338Z,-5.40
2022-12-12T03:21:47.429Z,-5.40
2022-12-12T03:24:37.240Z,-5.10
2022-12-12T03:27:26.539Z,-5.50
2022-12-12T03:30:17.773Z,-5.30
2022-12-12T03:33:18.573Z,-5.40
2022-12-12T03:36:14.647Z,-5.30
2022-12-12T03:39:06.213Z,-5.30
2022-12-12T03:42:04.885Z,-5.30
2022-12-12T03:44:57.141Z,-5.40
2022-12-12T03:48:00.357Z,-5.40
2022-12-12T03:50:52.471Z,-5.50
2022-12-12T03:53:44.496Z,-5.40
2022-12-12T03:56:49.542Z,-5.20
2022-12-12T04:00:08.785Z,-5.10
2022-12-12T04:03:01.725Z,-5.00
2022-12-12T04:06:28.732Z,-5.00
2022-12-12T04:09:35.576Z,-4.90
2022-12-12T04:12:51.692Z,-4.90
2022-12-12T04:16:04.767Z,-5.00
2022-12-12T04:18:58.296Z,-5.10
2022-12-12T04:22:08.595Z,-5.30
2022-12-12T04:25:02.508Z,-5.10
2022-12-12T04:27:52.385Z,-4.90
2022-12-12T04:30:38.366Z,-4.00
2022-12-12T04:33:27.472Z,-5.00
2022-12-12T04:36:15.284Z,-5.00
2022-12-12T04:39:02.126Z,-5.00
2022-12-12T04:41:51.050Z,-4.90
2022-12-12T04:44:40.692Z,-5.00
2022-12-12T04:47:29.673Z,-5.00
2022-12-12T04:50:17.165Z,-5.00
2022-12-12T04:53:14.891Z,-5.00
2022-12-12T04:56:11.000Z,-4.70
2022-12-12T04:58:57.537Z,-5.10
2022-12-12T05:01:59.621Z,-5.00
2022-12-12T05:05:02.174Z,-5.30
2022-12-12T05:07:56.155Z,-5.30
2022-12-12T05:10:46.404Z,-5.20
2022-12-12T05:13:35.547Z,-5.40
2022-12-12T05:16:27.813Z,-5.20
2022-12-12T05:19:13.263Z,-5.30
2022-12-12T05:21:58.638Z,-5.20
2022-12-12T05:24:43.913Z,-5.20
2022-12-12T05:27:29.465Z,-4.80
2022-12-12T05:30:15.516Z,-5.20
2022-12-12T05:33:01.090Z,-5.20
2022-12-12T05:35:46.611Z,-5.40
2022-12-12T05:38:32.151Z,-5.30
2022-12-12T05:41:17.669Z,-5.20
2022-12-12T05:44:03.322Z,-5.40
2022-12-12T05:46:48.831Z,-5.50
2022-12-12T05:49:34.534Z,-5.60
2022-12-12T05:52:20.011Z,-5.90
2022-12-12T05:55:06.247Z,-5.60
2022-12-12T05:57:51.845Z,-5.60
2022-12-12T06:00:37.538Z,-5.40
2022-12-12T06:03:22.746Z,-5.10
2022-12-12T06:06:08.101Z,-5.30
2022-12-12T06:08:53.467Z,-4.70
2022-12-12T06:11:39.282Z,-5.20
2022-12-12T06:14:25.702Z,-5.30
2022-12-12T06:17:11.047Z,-5.90
2022-12-12T06:19:56.511Z,-5.90
2022-12-12T06:22:42.434Z,-5.90
2022-12-12T06:25:27.953Z,-5.70
2022-12-12T06:28:13.493Z,-5.60
2022-12-12T06:30:59.010Z,-5.60
2022-12-12T06:33:44.827Z,-5.60
2022-12-12T06:36:30.607Z,-5.60
2022-12-12T06:39:16.004Z,-5.60
2022-12-12T06:42:01.572Z,-5.80
2022-12-12T06:44:47.046Z,-5.80
2022-12-12T06:47:32.533Z,-5.20
2022-12-12T06:50:23.424Z,-5.80
2022-12-12T06:53:09.726Z,-5.80
2022-12-12T06:55:55.054Z,-5.80
2022-12-12T06:58:40.565Z,-5.90
2022-12-12T07:01:26.381Z,-6.10
2022-12-12T07:04:12.905Z,-6.40
2022-12-12T07:06:58.462Z,-6.40
2022-12-12T07:09:44.131Z,-6.70
2022-12-12T07:12:29.381Z,-6.30
2022-12-12T07:15:14.997Z,-6.20
2022-12-12T07:18:00.838Z,-6.20
2022-12-12T07:20:46.628Z,-6.30
2022-12-12T07:23:32.910Z,-6.20
2022-12-12T07:26:21.122Z,-6.30
2022-12-12T07:29:06.382Z,-6.40
2022-12-12T07:31:51.979Z,-6.20
2022-12-12T07:34:37.284Z,-5.30
2022-12-12T07:37:23.037Z,-4.60
2022-12-12T07:40:08.925Z,-6.10
2022-12-12T07:42:54.395Z,-6.10
2022-12-12T07:45:44.797Z,-6.70
2022-12-12T07:48:30.124Z,-5.70
2022-12-12T07:51:16.008Z,-5.30
2022-12-12T07:54:01.424Z,-5.30
2022-12-12T07:56:47.198Z,-4.00
2022-12-12T07:59:32.575Z,-5.00
2022-12-12T08:02:18.237Z,-4.70
2022-12-12T08:05:04.025Z,-5.00
2022-12-12T08:07:49.609Z,-4.90
2022-12-12T08:10:35.190Z,-5.20
2022-12-12T08:13:20.836Z,-5.40
2022-12-12T08:16:08.124Z,-4.70
2022-12-12T08:18:57.640Z,-4.90
2022-12-12T08:21:43.870Z,-5.20
2022-12-12T08:24:30.082Z,-5.30
2022-12-12T08:27:16.082Z,-5.20
2022-12-12T08:30:01.634Z,-5.00
2022-12-12T08:32:47.105Z,-5.00
2022-12-12T08:35:32.804Z,-4.80
2022-12-12T08:38:18.162Z,-4.60
2022-12-12T08:41:03.824Z,-4.30
2022-12-12T08:43:49.941Z,-4.00
2022-12-12T08:46:35.905Z,-4.10
2022-12-12T08:49:21.150Z,-4.40
2022-12-12T08:52:09.941Z,-2.50
2022-12-12T08:54:55.327Z,-3.50
2022-12-12T08:57:40.828Z,-2.50
2022-12-12T09:00:26.489Z,-3.90
2022-12-12T09:03:12.298Z,-3.70
2022-12-12T09:05:57.689Z,-3.60
2022-12-12T09:08:43.698Z,-2.90
2022-12-12T09:11:28.997Z,-3.80
2022-12-12T09:14:14.647Z,-3.40
2022-12-12T09:17:00.090Z,-3.10
2022-12-12T09:19:45.852Z,-2.60
2022-12-12T09:22:31.435Z,-2.60
2022-12-12T09:25:16.861Z,-2.30
2022-12-12T09:28:02.753Z,-2.20
2022-12-12T09:30:48.726Z,-2.50
2022-12-12T09:33:35.005Z,-2.30
2022-12-12T09:36:21.104Z,-2.30
2022-12-12T09:39:06.317Z,-2.30
2022-12-12T09:41:51.895Z,-2.20
2022-12-12T09:44:38.398Z,-1.80
2022-12-12T09:47:38.881Z,-1.60
2022-12-12T09:50:31.306Z,-1.30
2022-12-12T09:53:19.806Z,-1.70
2022-12-12T09:56:11.398Z,-1.40
2022-12-12T09:59:08.038Z,-0.90
2022-12-12T10:02:24.626Z,-0.90
2022-12-12T10:05:22.318Z,-1.00
2022-12-12T10:08:17.128Z,-0.30
2022-12-12T10:11:29.460Z,-0.70
2022-12-12T10:14:34.503Z,-0.40
2022-12-12T10:17:19.673Z,-0.10
2022-12-12T10:20:13.055Z,-0.20
2022-12-12T10:23:26.725Z,-0.30
2022-12-12T10:26:23.933Z,-0.70
2022-12-12T10:29:19.146Z,-0.30
2022-12-12T10:32:35.071Z,-0.20
2022-12-12T10:35:55.547Z,-0.10
2022-12-12T10:38:49.920Z,0.30
2022-12-12T10:42:30.731Z,0.80
2022-12-12T10:45:34.703Z,1.00
2022-12-12T10:48:20.167Z,1.20
2022-12-12T10:51:11.994Z,0.50
2022-12-12T10:53:57.555Z,0.90
2022-12-12T10:57:20.276Z,2.00
2022-12-12T11:00:27.145Z,2.60
2022-12-12T11:03:35.954Z,3.00
2022-12-12T11:06:38.752Z,2.80
2022-12-12T11:09:25.692Z,1.50
2022-12-12T11:12:15.020Z,1.00
2022-12-12T11:15:15.973Z,0.20
2022-12-12T11:18:05.978Z,0.00
2022-12-12T11:20:59.165Z,0.00
2022-12-12T11:23:52.373Z,0.40
2022-12-12T11:26:47.784Z,0.70
2022-12-12T11:29:38.845Z,0.70
2022-12-12T11:32:40.731Z,0.80
2022-12-12T11:35:31.271Z,0.70
2022-12-12T11:38:24.842Z,0.00
2022-12-12T11:41:11.833Z,-0.10
2022-12-12T11:44:00.241Z,0.00
2022-12-12T11:46:45.789Z,0.10
2022-12-12T11:49:31.392Z,1.90
2022-12-12T11:52:33.709Z,0.10
2022-12-12T11:55:44.122Z,0.00
2022-12-12T11:58:37.368Z,0.00
2022-12-12T12:01:56.773Z,0.00
2022-12-12T12:05:20.383Z,0.60
2022-12-12T12:08:30.879Z,1.80
2022-12-12T12:11:33.079Z,2.00
2022-12-12T12:14:51.847Z,2.30
2022-12-12T12:17:57.986Z,2.80
2022-12-12T12:21:07.962Z,3.10
2022-12-12T12:24:48.530Z,2.80
2022-12-12T12:28:07.245Z,2.50
2022-12-12T12:31:21.872Z,1.90
2022-12-12T12:34:29.085Z,1.30
2022-12-12T12:37:26.858Z,1.00
2022-12-12T12:40:33.470Z,1.60
2022-12-12T12:43:25.501Z,2.20
2022-12-12T12:46:47.311Z,2.50
2022-12-12T12:49:39.919Z,2.30
2022-12-12T12:52:50.245Z,1.50
2022-12-12T12:55:45.910Z,1.20
2022-12-12T12:58:38.460Z,0.90
2022-12-12T13:01:33.914Z,0.40
2022-12-12T13:04:29.157Z,0.60
2022-12-12T13:07:27.299Z,0.90
2022-12-12T13:10:25.225Z,0.50
2022-12-12T13:13:23.832Z,0.20
2022-12-12T13:16:15.714Z,0.10
2022-12-12T13:19:06.231Z,0.10
2022-12-12T13:22:09.104Z,0.00
2022-12-12T13:25:30.037Z,0.10
2022-12-12T13:28:37.816Z,-0.10
2022-12-12T13:31:53.996Z,1.00
2022-12-12T13:34:44.822Z,-0.50
2022-12-12T13:37:33.396Z,-0.20
2022-12-12T13:40:31.557Z,-0.30
2022-12-12T13:43:39.148Z,-0.20
2022-12-12T13:46:27.550Z,-0.20
2022-12-12T13:49:24.305Z,-0.10
2022-12-12T13:52:30.489Z,-0.30
2022-12-12T13:55:19.056Z,-0.40
2022-12-12T13:58:20.212Z,-0.40
2022-12-12T14:01:28.869Z,0.70
2022-12-12T14:04:44.647Z,-0.40
2022-12-12T14:07:30.280Z,-0.50
2022-12-12T14:10:27.088Z,-0.50
2022-12-12T14:13:21.545Z,-0.40
2022-12-12T14:16:17.133Z,-0.40
2022-12-12T14:19:05.803Z,-0.10
2022-12-12T14:21:51.598Z,-0.10
2022-12-12T14:24:37.156Z,-0.60
2022-12-12T14:27:49.123Z,-0.30
2022-12-12T14:31:03.690Z,-0.70
2022-12-12T14:34:14.289Z,-1.00
2022-12-12T14:37:15.213Z,-1.00
2022-12-12T14:40:21.656Z,-1.80
2022-12-12T14:43:21.880Z,-0.60
2022-12-12T14:46:16.239Z,-0.60
2022-12-12T14:49:03.509Z,-0.60
2022-12-12T14:51:55.696Z,-0.60
2022-12-12T14:54:41.063Z,-0.70
2022-12-12T14:57:27.398Z,0.00
2022-12-12T15:00:18.482Z,-0.90
2022-12-12T15:03:04.711Z,-0.70
2022-12-12T15:06:20.435Z,-0.90
2022-12-12T15:09:20.143Z,-0.90
2022-12-12T15:12:11.340Z,-0.80
2022-12-12T15:14:57.871Z,-0.90
2022-12-12T15:17:49.879Z,-1.20
2022-12-12T15:20:36.652Z,-1.00
2022-12-12T15:23:22.190Z,-1.20
2022-12-12T15:26:20.037Z,-1.20
2022-12-12T15:29:05.641Z,-1.30
2022-12-12T15:32:09.311Z,0.00
2022-12-12T15:35:05.336Z,-1.70
2022-12-12T15:37:56.070Z,-1.40
2022-12-12T15:40:43.321Z,-1.60
2022-12-12T15:43:30.891Z,-1.50
2022-12-12T15:46:17.023Z,-1.60
2022-12-12T15:49:02.397Z,-1.70
2022-12-12T15:51:48.093Z,-1.60
2022-12-12T15:54:33.612Z,-1.40
2022-12-12T15:57:25.780Z,-1.70
2022-12-12T16:00:40.954Z,-1.50
2022-12-12T16:03:26.451Z,-1.60
2022-12-12T16:06:17.355Z,-1.50
2022-12-12T16:09:11.423Z,-1.70
2022-12-12T16:11:58.977Z,-1.60
2022-12-12T16:14:44.455Z,-1.70
2022-12-12T16:17:31.137Z,-1.70
2022-12-12T16:20:16.922Z,-1.70
2022-12-12T16:23:18.177Z,-1.90
2022-12-12T16:26:03.759Z,-0.80
2022-12-12T16:28:49.399Z,-0.30
2022-12-12T16:31:34.803Z,-1.60
2022-12-12T16:34:20.356Z,-1.50
2022-12-12T16:37:05.468Z,-1.40
2022-12-12T16:39:50.943Z,-1.50
2022-12-12T16:42:36.687Z,-1.40
2022-12-12T16:45:22.069Z,-1.20
2022-12-12T16:48:34.809Z,-1.40
2022-12-12T16:51:32.472Z,-1.50
2022-12-12T16:54:18.137Z,-1.50
2022-12-12T16:57:03.613Z,-1.90
2022-12-12T16:59:49.354Z,-2.00
2022-12-12T17:02:36.351Z,-2.10
2022-12-12T17:05:24.702Z,-1.30
2022-12-12T17:08:10.726Z,-0.70
2022-12-12T17:11:10.704Z,-1.70
2022-12-12T17:13:56.755Z,-1.30
2022-12-12T17:16:42.257Z,-1.70
2022-12-12T17:19:29.420Z,-1.70
2022-12-12T17:22:15.339Z,-1.70
2022-12-12T17:25:00.691Z,-1.60
2022-12-12T17:27:46.060Z,-1.80
2022-12-12T17:30:31.628Z,-1.80
2022-12-12T17:33:18.280Z,-1.70
2022-12-12T17:36:06.409Z,-1.70
2022-12-12T17:38:52.135Z,-1.80
2022-12-12T17:41:37.614Z,-1.90
2022-12-12T17:44:23.848Z,-1.80
2022-12-12T17:47:09.135Z,-1.60
2022-12-12T17:49:54.714Z,-1.50
2022-12-12T17:52:40.433Z,-1.70
2022-12-12T17:55:51.508Z,-1.60
2022-12-12T17:58:36.330Z,-0.20
2022-12-12T18:01:27.789Z,-1.90
2022-12-12T18:04:13.120Z,-2.40
2022-12-12T18:06:58.767Z,-2.00
2022-12-12T18:09:44.246Z,-2.00
2022-12-12T18:12:29.901Z,-1.80
2022-12-12T18:15:15.146Z,-1.90
2022-12-12T18:18:00.691Z,-2.30
2022-12-12T18:20:46.139Z,-2.30
2022-12-12T18:23:32.368Z,-2.50
2022-12-12T18:26:22.415Z,-2.50
2022-12-12T18:29:09.193Z,-2.50
2022-12-12T18:31:54.936Z,-1.90
2022-12-12T18:34:40.255Z,-2.80
2022-12-12T18:37:25.518Z,-2.50
2022-12-12T18:40:11.611Z,-2.60
2022-12-12T18:42:57.552Z,-2.70
2022-12-12T18:45:42.908Z,-2.60
2022-12-12T18:48:28.723Z,-2.20
2022-12-12T18:51:23.346Z,-2.90
2022-12-12T18:54:14.267Z,-2.80
2022-12-12T18:57:00.539Z,-2.60
2022-12-12T18:59:45.731Z,-2.70
2022-12-12T19:02:35.549Z,-3.00
2022-12-12T19:05:20.896Z,-2.80
2022-12-12T19:08:06.750Z,-2.50
2022-12-12T19:10:52.026Z,-2.90
2022-12-12T19:13:38.107Z,-2.70
2022-12-12T19:16:23.810Z,-2.70
2022-12-12T19:19:09.705Z,-2.70
2022-12-12T19:21:54.864Z,-2.80
2022-12-12T19:24:41.081Z,-2.70
2022-12-12T19:27:28.361Z,-1.30
2022-12-12T19:30:15.669Z,-2.80
2022-12-12T19:33:01.346Z,-2.80
2022-12-12T19:35:47.040Z,-2.80
2022-12-12T19:38:32.426Z,-2.60
2022-12-12T19:41:19.534Z,-2.60
2022-12-12T19:44:08.716Z,-3.00
2022-12-12T19:46:54.285Z,-2.90
2022-12-12T19:49:39.808Z,-2.90
2022-12-12T19:52:25.572Z,-2.50
2022-12-12T19:55:11.013Z,-2.80
2022-12-12T19:57:56.459Z,-2.80
2022-12-12T20:00:42.989Z,-3.10
2022-12-12T20:03:28.481Z,-3.10
2022-12-12T20:06:13.847Z,-2.90
2022-12-12T20:09:02.581Z,-3.20
2022-12-12T20:11:48.783Z,-3.10
2022-12-12T20:14:35.209Z,-1.70
2022-12-12T20:17:20.414Z,-2.60
2022-12-12T20:20:06.803Z,-3.00
2022-12-12T20:22:52.168Z,-3.00
2022-12-12T20:25:41.994Z,-2.80
2022-12-12T20:28:27.177Z,-2.90
2022-12-12T20:31:24.993Z,-2.90
2022-12-12T20:34:10.655Z,-2.80
2022-12-12T20:36:56.241Z,-2.50
2022-12-12T20:39:41.764Z,-2.80
2022-12-12T20:42:27.166Z,-2.70
2022-12-12T20:45:12.664Z,-2.80
2022-12-12T20:48:00.706Z,-2.80
2022-12-12T20:50:49.799Z,-3.00
2022-12-12T20:53:36.689Z,-3.00
2022-12-12T20:56:22.411Z,-3.10
2022-12-12T20:59:07.986Z,-3.20
2022-12-12T21:01:54.253Z,-3.30
2022-12-12T21:04:39.603Z,-2.50
2022-12-12T21:07:25.183Z,-3.30
2022-12-12T21:10:10.783Z,-3.20
2022-12-12T21:12:56.403Z,-3.20
2022-12-12T21:15:41.999Z,-3.40
2022-12-12T21:18:27.360Z,-3.10
2022-12-12T21:21:13.785Z,-3.10
2022-12-12T21:23:59.556Z,-2.10
2022-12-12T21:26:46.525Z,-3.10
2022-12-12T21:29:31.866Z,-3.00
2022-12-12T21:32:17.368Z,-3.10
2022-12-12T21:35:02.848Z,-3.10
2022-12-12T21:37:48.463Z,-2.30
2022-12-12T21:40:36.453Z,-3.10
2022-12-12T21:43:21.878Z,-2.90
2022-12-12T21:46:11.282Z,-2.90
2022-12-12T21:49:16.418Z,-2.90
2022-12-12T21:52:04.751Z,-1.60
2022-12-12T21:54:50.315Z,-3.10
2022-12-12T21:57:35.924Z,-3.10
2022-12-12T22:00:21.654Z,-3.20
2022-12-12T22:03:07.537Z,-1.80
2022-12-12T22:05:53.144Z,-1.10
2022-12-12T22:08:39.232Z,-3.10
2022-12-12T22:11:40.178Z,-3.10
2022-12-12T22:14:34.903Z,-1.20
2022-12-12T22:17:20.098Z,-2.80
2022-12-12T22:20:05.989Z,-2.60
2022-12-12T22:22:51.303Z,-2.80
2022-12-12T22:25:37.102Z,-2.80
2022-12-12T22:28:22.509Z,-2.70
2022-12-12T22:31:08.901Z,-2.60
2022-12-12T22:33:59.727Z,-2.50
2022-12-12T22:36:46.106Z,-2.10
2022-12-12T22:39:31.434Z,-0.90
2022-12-12T22:42:17.153Z,-2.30
2022-12-12T22:45:02.491Z,-2.50
2022-12-12T22:47:48.264Z,-2.60
2022-12-12T22:50:33.691Z,-2.70
2022-12-12T22:53:19.224Z,-0.40
2022-12-12T22:56:04.854Z,-3.00
2022-12-12T22:58:50.442Z,-1.40
2022-12-12T23:01:35.981Z,-3.00
2022-12-12T23:04:21.547Z,-2.90
2022-12-12T23:07:06.982Z,-0.50
2022-12-12T23:09:52.682Z,-3.00
2022-12-12T23:12:40.836Z,-3.30
2022-12-12T23:15:26.413Z,-3.30
2022-12-12T23:18:11.681Z,-3.60
2022-12-12T23:20:57.383Z,-3.70
2022-12-12T23:23:43.066Z,-3.90
2022-12-12T23:26:30.702Z,-3.90
2022-12-12T23:29:17.084Z,-3.70
2022-12-12T23:32:03.095Z,-3.60
2022-12-12T23:34:48.714Z,-3.20
2022-12-12T23:37:33.920Z,-3.80
2022-12-12T23:40:19.444Z,-3.90
2022-12-12T23:43:05.019Z,-4.00
2022-12-12T23:45:50.593Z,-4.00
2022-12-12T23:48:36.266Z,-4.10
2022-12-12T23:51:21.663Z,-2.30
2022-12-12T23:54:10.395Z,-3.90
2022-12-12T23:56:56.127Z,-3.80
2022-12-12T23:59:42.059Z,-3.90
